sensor_id;sensor_type;location;lat;lon;timestamp;pressure;altitude;pressure_sealevel;temperature;humidity
63819;BME280;49970;54.976;73.248;2023-06-22T00:00:50;98970.63;;;10.56;77.61
63819;BME280;49970;54.976;73.248;2023-06-22T00:03:18;98970.63;;;10.56;77.57
63819;BME280;49970;54.976;73.248;2023-06-22T00:05:45;98974.09;;;10.56;78.53
63819;BME280;49970;54.976;73.248;2023-06-22T00:08:12;98979.13;;;10.59;78.01
63819;BME280;49970;54.976;73.248;2023-06-22T00:10:39;98973.69;;;10.61;77.78
63819;BME280;49970;54.976;73.248;2023-06-22T00:13:06;98967.00;;;10.57;77.54
63819;BME280;49970;54.976;73.248;2023-06-22T00:15:33;98952.41;;;10.43;77.45
63819;BME280;49970;54.976;73.248;2023-06-22T00:18:00;98973.44;;;10.54;77.99
63819;BME280;49970;54.976;73.248;2023-06-22T00:20:26;98973.44;;;10.54;77.79
63819;BME280;49970;54.976;73.248;2023-06-22T00:22:59;98978.56;;;10.56;78.10
63819;BME280;49970;54.976;73.248;2023-06-22T00:25:25;98975.09;;;10.55;78.30
63819;BME280;49970;54.976;73.248;2023-06-22T00:31:22;98983.19;;;10.54;78.11
63819;BME280;49970;54.976;73.248;2023-06-22T00:33:48;98980.94;;;10.49;78.22
63819;BME280;49970;54.976;73.248;2023-06-22T00:36:17;98979.69;;;10.43;77.96
63819;BME280;49970;54.976;73.248;2023-06-22T00:38:45;98989.31;;;10.44;78.58
63819;BME280;49970;54.976;73.248;2023-06-22T00:41:11;98974.84;;;10.39;78.98
63819;BME280;49970;54.976;73.248;2023-06-22T00:43:37;98979.84;;;10.42;78.09
63819;BME280;49970;54.976;73.248;2023-06-22T00:46:04;98981.66;;;10.51;78.18
63819;BME280;49970;54.976;73.248;2023-06-22T00:48:30;98992.38;;;10.59;78.47
63819;BME280;49970;54.976;73.248;2023-06-22T00:50:56;98996.41;;;10.63;78.30
63819;BME280;49970;54.976;73.248;2023-06-22T00:53:23;98979.41;;;10.56;78.45
63819;BME280;49970;54.976;73.248;2023-06-22T00:55:49;98999.47;;;10.68;78.44
63819;BME280;49970;54.976;73.248;2023-06-22T00:58:18;99006.16;;;10.72;77.88
63819;BME280;49970;54.976;73.248;2023-06-22T01:00:48;99006.41;;;10.69;77.99
63819;BME280;49970;54.976;73.248;2023-06-22T01:03:15;99006.28;;;10.71;77.78
63819;BME280;49970;54.976;73.248;2023-06-22T01:05:42;99009.91;;;10.70;77.93
63819;BME280;49970;54.976;73.248;2023-06-22T01:16:35;99028.03;;;10.65;78.54
63819;BME280;49970;54.976;73.248;2023-06-22T01:21:48;99037.13;;;10.62;78.84
63819;BME280;49970;54.976;73.248;2023-06-22T01:24:22;99043.09;;;10.64;78.55
63819;BME280;49970;54.976;73.248;2023-06-22T01:27:09;99039.59;;;10.64;79.13
63819;BME280;49970;54.976;73.248;2023-06-22T01:29:41;99042.09;;;10.65;78.50
63819;BME280;49970;54.976;73.248;2023-06-22T01:32:10;99047.13;;;10.68;79.29
63819;BME280;49970;54.976;73.248;2023-06-22T01:34:38;99054.66;;;10.73;78.89
63819;BME280;49970;54.976;73.248;2023-06-22T01:37:06;99054.66;;;10.73;79.42
63819;BME280;49970;54.976;73.248;2023-06-22T01:39:33;99052.41;;;10.68;79.34
63819;BME280;49970;54.976;73.248;2023-06-22T01:42:01;99062.75;;;10.71;78.83
63819;BME280;49970;54.976;73.248;2023-06-22T01:44:48;99054.78;;;10.71;78.86
63819;BME280;49970;54.976;73.248;2023-06-22T01:48:03;99063.97;;;10.77;79.11
63819;BME280;49970;54.976;73.248;2023-06-22T01:50:29;99057.16;;;10.75;78.93
63819;BME280;49970;54.976;73.248;2023-06-22T01:52:56;99045.31;;;10.69;79.47
63819;BME280;49970;54.976;73.248;2023-06-22T01:55:22;99050.75;;;10.67;78.61
63819;BME280;49970;54.976;73.248;2023-06-22T01:57:49;99062.88;;;10.70;78.93
63819;BME280;49970;54.976;73.248;2023-06-22T02:00:19;99070.25;;;10.76;78.68
63819;BME280;49970;54.976;73.248;2023-06-22T02:05:28;99075.28;;;10.79;78.58
63819;BME280;49970;54.976;73.248;2023-06-22T02:08:04;99073.31;;;10.81;78.84
63819;BME280;49970;54.976;73.248;2023-06-22T02:10:34;99073.47;;;10.80;78.72
63819;BME280;49970;54.976;73.248;2023-06-22T02:13:06;99086.13;;;10.86;78.62
63819;BME280;49970;54.976;73.248;2023-06-22T02:15:32;99048.53;;;10.63;78.96
63819;BME280;49970;54.976;73.248;2023-06-22T02:18:00;99086.97;;;10.86;79.30
63819;BME280;49970;54.976;73.248;2023-06-22T02:20:28;99090.34;;;10.88;79.32
63819;BME280;49970;54.976;73.248;2023-06-22T02:22:56;99080.84;;;10.76;78.85
63819;BME280;49970;54.976;73.248;2023-06-22T02:25:22;99094.38;;;10.83;78.28
63819;BME280;49970;54.976;73.248;2023-06-22T02:27:49;99098.69;;;10.84;78.57
63819;BME280;49970;54.976;73.248;2023-06-22T02:30:16;99093.38;;;10.74;78.69
63819;BME280;49970;54.976;73.248;2023-06-22T02:32:42;99108.59;;;10.82;79.05
63819;BME280;49970;54.976;73.248;2023-06-22T02:35:09;99106.66;;;10.84;79.50
63819;BME280;49970;54.976;73.248;2023-06-22T02:37:36;99109.84;;;10.87;79.97
63819;BME280;49970;54.976;73.248;2023-06-22T02:40:06;99105.41;;;10.88;79.54
63819;BME280;49970;54.976;73.248;2023-06-22T02:42:35;99101.47;;;10.82;79.07
63819;BME280;49970;54.976;73.248;2023-06-22T02:45:01;99118.75;;;10.86;79.11
63819;BME280;49970;54.976;73.248;2023-06-22T02:47:27;99117.94;;;10.86;79.08
63819;BME280;49970;54.976;73.248;2023-06-22T02:49:54;99117.09;;;10.85;79.14
63819;BME280;49970;54.976;73.248;2023-06-22T02:52:20;99121.56;;;10.85;79.33
63819;BME280;49970;54.976;73.248;2023-06-22T02:54:46;99120.88;;;10.83;79.11
63819;BME280;49970;54.976;73.248;2023-06-22T02:57:34;99118.34;;;10.81;79.59
63819;BME280;49970;54.976;73.248;2023-06-22T03:00:03;99117.94;;;10.86;79.65
63819;BME280;49970;54.976;73.248;2023-06-22T03:02:44;99113.75;;;10.83;78.84
63819;BME280;49970;54.976;73.248;2023-06-22T03:05:12;99125.88;;;10.86;78.70
63819;BME280;49970;54.976;73.248;2023-06-22T03:07:44;99134.22;;;10.91;78.98
63819;BME280;49970;54.976;73.248;2023-06-22T03:10:12;99132.13;;;10.94;79.04
63819;BME280;49970;54.976;73.248;2023-06-22T03:12:39;99132.59;;;11.00;79.73
63819;BME280;49970;54.976;73.248;2023-06-22T03:15:07;99124.22;;;11.04;79.04
63819;BME280;49970;54.976;73.248;2023-06-22T03:17:35;99134.94;;;11.03;79.00
63819;BME280;49970;54.976;73.248;2023-06-22T03:20:02;99134.38;;;10.99;79.18
63819;BME280;49970;54.976;73.248;2023-06-22T03:22:40;99138.56;;;11.02;79.76
63819;BME280;49970;54.976;73.248;2023-06-22T03:25:10;99139.28;;;11.04;79.47
63819;BME280;49970;54.976;73.248;2023-06-22T03:27:42;99136.63;;;11.04;79.01
63819;BME280;49970;54.976;73.248;2023-06-22T03:30:11;99145.25;;;11.06;79.43
63819;BME280;49970;54.976;73.248;2023-06-22T03:32:38;99130.91;;;11.08;79.40
63819;BME280;49970;54.976;73.248;2023-06-22T03:35:25;99132.28;;;11.12;79.37
63819;BME280;49970;54.976;73.248;2023-06-22T03:38:57;99138.13;;;11.16;78.58
63819;BME280;49970;54.976;73.248;2023-06-22T03:41:23;99141.31;;;11.19;79.02
63819;BME280;49970;54.976;73.248;2023-06-22T03:43:50;99141.88;;;11.23;78.94
63819;BME280;49970;54.976;73.248;2023-06-22T03:46:16;99150.66;;;11.23;78.73
63819;BME280;49970;54.976;73.248;2023-06-22T03:48:43;99153.19;;;11.25;78.99
63819;BME280;49970;54.976;73.248;2023-06-22T03:51:09;99147.19;;;11.23;78.37
63819;BME280;49970;54.976;73.248;2023-06-22T03:53:35;99150.25;;;11.18;78.55
63819;BME280;49970;54.976;73.248;2023-06-22T03:56:01;99154.88;;;11.26;78.61
63819;BME280;49970;54.976;73.248;2023-06-22T03:58:28;99159.72;;;11.31;78.62
63819;BME280;49970;54.976;73.248;2023-06-22T04:00:58;99156.50;;;11.37;78.71
63819;BME280;49970;54.976;73.248;2023-06-22T04:03:26;99152.47;;;11.42;78.72
63819;BME280;49970;54.976;73.248;2023-06-22T04:05:52;99159.81;;;11.58;79.06
63819;BME280;49970;54.976;73.248;2023-06-22T04:08:18;99157.41;;;11.75;78.09
63819;BME280;49970;54.976;73.248;2023-06-22T04:10:44;99162.94;;;11.91;77.31
63819;BME280;49970;54.976;73.248;2023-06-22T04:13:11;99162.78;;;12.02;77.26
63819;BME280;49970;54.976;73.248;2023-06-22T04:15:57;99169.84;;;12.11;76.17
63819;BME280;49970;54.976;73.248;2023-06-22T04:19:28;99173.03;;;12.15;75.72
63819;BME280;49970;54.976;73.248;2023-06-22T04:21:54;99175.97;;;12.12;75.42
63819;BME280;49970;54.976;73.248;2023-06-22T04:24:21;99185.31;;;12.16;75.17
63819;BME280;49970;54.976;73.248;2023-06-22T04:26:47;99178.34;;;12.15;74.55
63819;BME280;49970;54.976;73.248;2023-06-22T04:29:13;99174.88;;;12.14;74.24
63819;BME280;49970;54.976;73.248;2023-06-22T04:32:00;99183.81;;;12.13;74.02
63819;BME280;49970;54.976;73.248;2023-06-22T04:34:45;99181.91;;;12.06;73.68
63819;BME280;49970;54.976;73.248;2023-06-22T04:37:11;99190.28;;;12.01;74.93
63819;BME280;49970;54.976;73.248;2023-06-22T04:39:42;99186.41;;;11.95;76.65
63819;BME280;49970;54.976;73.248;2023-06-22T04:42:09;99192.00;;;11.92;77.86
63819;BME280;49970;54.976;73.248;2023-06-22T04:44:35;99199.97;;;11.92;78.39
63819;BME280;49970;54.976;73.248;2023-06-22T04:47:01;99209.03;;;11.90;78.81
63819;BME280;49970;54.976;73.248;2023-06-22T04:49:30;99207.53;;;11.87;80.11
63819;BME280;49970;54.976;73.248;2023-06-22T04:52:07;99205.41;;;11.81;81.40
63819;BME280;49970;54.976;73.248;2023-06-22T04:54:34;99218.81;;;11.70;80.93
63819;BME280;49970;54.976;73.248;2023-06-22T04:57:02;99210.22;;;11.58;81.74
63819;BME280;49970;54.976;73.248;2023-06-22T04:59:30;99222.91;;;11.55;82.87
63819;BME280;49970;54.976;73.248;2023-06-22T05:02:00;99233.81;;;11.52;83.73
63819;BME280;49970;54.976;73.248;2023-06-22T05:04:28;99227.81;;;11.50;84.27
63819;BME280;49970;54.976;73.248;2023-06-22T05:06:58;99222.53;;;11.50;84.48
63819;BME280;49970;54.976;73.248;2023-06-22T05:09:24;99223.47;;;11.48;84.30
63819;BME280;49970;54.976;73.248;2023-06-22T05:11:51;99231.72;;;11.55;84.31
63819;BME280;49970;54.976;73.248;2023-06-22T05:14:18;99233.94;;;11.60;84.00
63819;BME280;49970;54.976;73.248;2023-06-22T05:16:45;99232.13;;;11.60;83.78
63819;BME280;49970;54.976;73.248;2023-06-22T05:19:12;99236.19;;;11.55;83.57
63819;BME280;49970;54.976;73.248;2023-06-22T05:21:38;99245.38;;;11.60;84.08
63819;BME280;49970;54.976;73.248;2023-06-22T05:24:05;99232.41;;;11.57;83.99
63819;BME280;49970;54.976;73.248;2023-06-22T05:26:32;99251.91;;;11.66;83.63
63819;BME280;49970;54.976;73.248;2023-06-22T05:29:00;99249.41;;;11.64;84.04
63819;BME280;49970;54.976;73.248;2023-06-22T05:31:28;99250.13;;;11.66;83.80
63819;BME280;49970;54.976;73.248;2023-06-22T05:34:14;99253.91;;;11.64;83.18
63819;BME280;49970;54.976;73.248;2023-06-22T05:38:05;99258.38;;;11.63;83.84
63819;BME280;49970;54.976;73.248;2023-06-22T05:41:56;99262.69;;;11.64;83.20
63819;BME280;49970;54.976;73.248;2023-06-22T05:49:28;99259.34;;;11.62;84.48
63819;BME280;49970;54.976;73.248;2023-06-22T05:51:59;99255.56;;;11.65;84.97
63819;BME280;49970;54.976;73.248;2023-06-22T05:54:27;99256.81;;;11.70;84.84
63819;BME280;49970;54.976;73.248;2023-06-22T05:56:53;99265.44;;;11.82;84.31
63819;BME280;49970;54.976;73.248;2023-06-22T05:59:20;99278.47;;;11.85;84.33
63819;BME280;49970;54.976;73.248;2023-06-22T06:01:46;99267.97;;;11.93;84.58
63819;BME280;49970;54.976;73.248;2023-06-22T06:04:17;99275.34;;;12.00;83.69
63819;BME280;49970;54.976;73.248;2023-06-22T06:06:44;99269.91;;;12.01;83.07
63819;BME280;49970;54.976;73.248;2023-06-22T06:09:11;99266.78;;;12.15;81.94
63819;BME280;49970;54.976;73.248;2023-06-22T06:11:37;99273.03;;;12.24;80.81
63819;BME280;49970;54.976;73.248;2023-06-22T06:14:04;99268.00;;;12.31;80.51
63819;BME280;49970;54.976;73.248;2023-06-22T06:16:30;99273.97;;;12.42;80.16
63819;BME280;49970;54.976;73.248;2023-06-22T06:18:56;99275.75;;;12.52;79.43
63819;BME280;49970;54.976;73.248;2023-06-22T06:21:24;99265.28;;;12.50;78.37
63819;BME280;49970;54.976;73.248;2023-06-22T06:24:10;99285.75;;;12.58;77.44
63819;BME280;49970;54.976;73.248;2023-06-22T06:27:21;99288.03;;;12.53;77.93
63819;BME280;49970;54.976;73.248;2023-06-22T06:29:54;99287.09;;;12.44;78.13
63819;BME280;49970;54.976;73.248;2023-06-22T06:33:30;99295.09;;;12.34;77.33
63819;BME280;49970;54.976;73.248;2023-06-22T06:35:57;99299.16;;;12.29;76.72
63819;BME280;49970;54.976;73.248;2023-06-22T06:38:24;99299.47;;;12.26;76.85
63819;BME280;49970;54.976;73.248;2023-06-22T06:40:50;99298.63;;;12.25;77.11
63819;BME280;49970;54.976;73.248;2023-06-22T06:43:16;99297.94;;;12.23;76.93
63819;BME280;49970;54.976;73.248;2023-06-22T06:45:44;99303.34;;;12.31;76.56
63819;BME280;49970;54.976;73.248;2023-06-22T06:48:31;99300.69;;;12.31;76.66
63819;BME280;49970;54.976;73.248;2023-06-22T06:51:18;99307.41;;;12.35;76.68
63819;BME280;49970;54.976;73.248;2023-06-22T06:53:45;99306.94;;;12.40;76.59
63819;BME280;49970;54.976;73.248;2023-06-22T06:56:11;99305.78;;;12.52;76.59
63819;BME280;49970;54.976;73.248;2023-06-22T06:58:41;99305.91;;;12.60;76.69
63819;BME280;49970;54.976;73.248;2023-06-22T07:01:08;99309.66;;;12.67;76.21
63819;BME280;49970;54.976;73.248;2023-06-22T07:03:34;99304.03;;;12.70;75.99
63819;BME280;49970;54.976;73.248;2023-06-22T07:06:13;99319.00;;;12.71;76.20
63819;BME280;49970;54.976;73.248;2023-06-22T07:08:42;99322.22;;;12.75;76.11
63819;BME280;49970;54.976;73.248;2023-06-22T07:11:08;99300.31;;;12.63;75.56
63819;BME280;49970;54.976;73.248;2023-06-22T07:13:35;99322.72;;;12.79;75.79
63819;BME280;49970;54.976;73.248;2023-06-22T07:16:01;99320.31;;;12.85;75.59
63819;BME280;49970;54.976;73.248;2023-06-22T07:18:27;99311.47;;;12.94;74.71
63819;BME280;49970;54.976;73.248;2023-06-22T07:20:53;99316.22;;;12.91;74.10
63819;BME280;49970;54.976;73.248;2023-06-22T07:23:20;99323.09;;;12.93;73.86
63819;BME280;49970;54.976;73.248;2023-06-22T07:25:46;99317.84;;;13.02;74.18
63819;BME280;49970;54.976;73.248;2023-06-22T07:28:12;99314.00;;;13.14;73.42
63819;BME280;49970;54.976;73.248;2023-06-22T07:30:39;99330.84;;;13.32;72.99
63819;BME280;49970;54.976;73.248;2023-06-22T07:33:05;99329.56;;;13.36;72.74
63819;BME280;49970;54.976;73.248;2023-06-22T07:35:34;99325.78;;;13.39;72.16
63819;BME280;49970;54.976;73.248;2023-06-22T07:38:00;99324.63;;;13.41;72.39
63819;BME280;49970;54.976;73.248;2023-06-22T07:40:26;99325.91;;;13.37;72.83
63819;BME280;49970;54.976;73.248;2023-06-22T07:42:53;99328.66;;;13.45;72.01
63819;BME280;49970;54.976;73.248;2023-06-22T07:45:39;99333.75;;;13.57;71.88
63819;BME280;49970;54.976;73.248;2023-06-22T07:56:29;99336.69;;;13.54;71.29
63819;BME280;49970;54.976;73.248;2023-06-22T07:58:55;99346.06;;;13.58;71.44
63819;BME280;49970;54.976;73.248;2023-06-22T08:01:24;99344.38;;;13.57;71.14
63819;BME280;49970;54.976;73.248;2023-06-22T08:03:50;99354.75;;;13.60;71.43
63819;BME280;49970;54.976;73.248;2023-06-22T08:06:17;99356.41;;;13.61;71.71
63819;BME280;49970;54.976;73.248;2023-06-22T08:08:43;99352.06;;;13.60;71.96
63819;BME280;49970;54.976;73.248;2023-06-22T08:11:09;99372.06;;;13.64;71.99
63819;BME280;49970;54.976;73.248;2023-06-22T08:13:36;99370.84;;;13.58;73.41
63819;BME280;49970;54.976;73.248;2023-06-22T08:16:02;99375.41;;;13.48;74.89
63819;BME280;49970;54.976;73.248;2023-06-22T08:18:28;99370.81;;;13.40;75.90
63819;BME280;49970;54.976;73.248;2023-06-22T08:21:14;99371.88;;;13.30;75.54
63819;BME280;49970;54.976;73.248;2023-06-22T08:24:48;99368.97;;;13.23;75.09
63819;BME280;49970;54.976;73.248;2023-06-22T08:27:14;99364.63;;;13.22;74.63
63819;BME280;49970;54.976;73.248;2023-06-22T08:29:44;99373.84;;;13.28;74.80
63819;BME280;49970;54.976;73.248;2023-06-22T08:32:12;99363.03;;;13.29;74.02
63819;BME280;49970;54.976;73.248;2023-06-22T08:34:38;99376.84;;;13.42;73.18
63819;BME280;49970;54.976;73.248;2023-06-22T08:37:09;99364.91;;;13.47;72.80
63819;BME280;49970;54.976;73.248;2023-06-22T08:39:36;99375.03;;;13.61;72.69
63819;BME280;49970;54.976;73.248;2023-06-22T08:42:03;99378.16;;;13.74;72.11
63819;BME280;49970;54.976;73.248;2023-06-22T08:44:29;99380.59;;;13.85;71.96
63819;BME280;49970;54.976;73.248;2023-06-22T08:46:55;99375.34;;;13.93;71.20
63819;BME280;49970;54.976;73.248;2023-06-22T08:49:22;99368.00;;;13.95;70.90
63819;BME280;49970;54.976;73.248;2023-06-22T08:51:48;99368.78;;;14.06;70.44
63819;BME280;49970;54.976;73.248;2023-06-22T08:54:15;99366.94;;;14.06;69.69
63819;BME280;49970;54.976;73.248;2023-06-22T08:56:41;99382.22;;;14.22;70.41
63819;BME280;49970;54.976;73.248;2023-06-22T08:59:09;99382.94;;;14.32;70.46
63819;BME280;49970;54.976;73.248;2023-06-22T09:01:36;99368.97;;;14.30;70.26
63819;BME280;49970;54.976;73.248;2023-06-22T09:04:02;99385.16;;;14.37;69.45
63819;BME280;49970;54.976;73.248;2023-06-22T09:06:31;99385.16;;;14.37;69.83
63819;BME280;49970;54.976;73.248;2023-06-22T09:08:58;99384.25;;;14.28;71.30
63819;BME280;49970;54.976;73.248;2023-06-22T09:11:27;99398.81;;;14.16;73.84
63819;BME280;49970;54.976;73.248;2023-06-22T09:13:55;99408.84;;;14.04;76.71
63819;BME280;49970;54.976;73.248;2023-06-22T09:16:22;99428.03;;;13.90;77.85
63819;BME280;49970;54.976;73.248;2023-06-22T09:18:48;99424.91;;;13.77;78.16
63819;BME280;49970;54.976;73.248;2023-06-22T09:21:15;99415.56;;;13.55;78.16
63819;BME280;49970;54.976;73.248;2023-06-22T09:23:41;99429.88;;;13.44;79.84
63819;BME280;49970;54.976;73.248;2023-06-22T09:26:08;99412.91;;;13.27;80.06
63819;BME280;49970;54.976;73.248;2023-06-22T09:28:34;99414.97;;;13.33;81.20
63819;BME280;49970;54.976;73.248;2023-06-22T09:31:00;99418.47;;;13.34;81.17
63819;BME280;49970;54.976;73.248;2023-06-22T09:33:27;99417.31;;;13.36;80.92
63819;BME280;49970;54.976;73.248;2023-06-22T09:35:53;99413.38;;;13.40;81.28
63819;BME280;49970;54.976;73.248;2023-06-22T09:38:19;99416.44;;;13.45;80.98
63819;BME280;49970;54.976;73.248;2023-06-22T09:40:45;99413.63;;;13.47;80.08
63819;BME280;49970;54.976;73.248;2023-06-22T09:43:12;99412.91;;;13.55;78.71
63819;BME280;49970;54.976;73.248;2023-06-22T09:45:38;99415.66;;;13.63;78.15
63819;BME280;49970;54.976;73.248;2023-06-22T09:48:04;99429.63;;;13.65;77.50
63819;BME280;49970;54.976;73.248;2023-06-22T09:50:31;99417.84;;;13.67;77.01
63819;BME280;49970;54.976;73.248;2023-06-22T09:52:57;99429.03;;;13.71;77.13
63819;BME280;49970;54.976;73.248;2023-06-22T09:55:24;99424.91;;;13.77;76.93
63819;BME280;49970;54.976;73.248;2023-06-22T09:57:50;99428.66;;;13.84;76.39
63819;BME280;49970;54.976;73.248;2023-06-22T10:00:17;99420.50;;;13.85;76.12
63819;BME280;49970;54.976;73.248;2023-06-22T10:02:45;99424.84;;;13.86;75.30
63819;BME280;49970;54.976;73.248;2023-06-22T10:05:11;99425.00;;;13.85;75.54
63819;BME280;49970;54.976;73.248;2023-06-22T10:07:38;99425.53;;;13.88;75.97
63819;BME280;49970;54.976;73.248;2023-06-22T10:10:09;99426.38;;;13.89;76.38
63819;BME280;49970;54.976;73.248;2023-06-22T10:12:35;99433.44;;;13.98;76.16
63819;BME280;49970;54.976;73.248;2023-06-22T10:15:02;99444.63;;;14.02;75.48
63819;BME280;49970;54.976;73.248;2023-06-22T10:17:29;99437.94;;;13.98;76.57
63819;BME280;49970;54.976;73.248;2023-06-22T10:19:55;99443.84;;;13.91;77.43
63819;BME280;49970;54.976;73.248;2023-06-22T10:22:21;99434.41;;;13.79;77.73
63819;BME280;49970;54.976;73.248;2023-06-22T10:24:47;99437.22;;;13.78;78.20
63819;BME280;49970;54.976;73.248;2023-06-22T10:27:14;99444.09;;;13.80;78.12
63819;BME280;49970;54.976;73.248;2023-06-22T10:29:41;99447.72;;;13.79;76.89
63819;BME280;49970;54.976;73.248;2023-06-22T10:32:07;99452.91;;;13.81;76.70
63819;BME280;49970;54.976;73.248;2023-06-22T10:34:34;99451.75;;;13.83;75.98
63819;BME280;49970;54.976;73.248;2023-06-22T10:37:00;99452.16;;;13.88;75.52
63819;BME280;49970;54.976;73.248;2023-06-22T10:39:26;99453.38;;;13.94;74.88
63819;BME280;49970;54.976;73.248;2023-06-22T10:41:53;99448.03;;;13.94;74.56
63819;BME280;49970;54.976;73.248;2023-06-22T10:44:39;99452.44;;;14.03;72.45
63819;BME280;49970;54.976;73.248;2023-06-22T10:48:10;99457.19;;;14.09;72.47
63819;BME280;49970;54.976;73.248;2023-06-22T10:52:01;99463.88;;;14.13;71.47
63819;BME280;49970;54.976;73.248;2023-06-22T10:55:00;99469.59;;;14.18;71.57
63819;BME280;49970;54.976;73.248;2023-06-22T10:58:31;99468.38;;;14.13;72.21
63819;BME280;49970;54.976;73.248;2023-06-22T11:00:57;99474.84;;;14.10;72.34
63819;BME280;49970;54.976;73.248;2023-06-22T11:03:25;99472.34;;;14.09;72.78
63819;BME280;49970;54.976;73.248;2023-06-22T11:05:51;99467.69;;;14.11;73.30
63819;BME280;49970;54.976;73.248;2023-06-22T11:08:17;99449.97;;;14.02;73.09
63819;BME280;49970;54.976;73.248;2023-06-22T11:10:43;99455.50;;;14.08;72.98
63819;BME280;49970;54.976;73.248;2023-06-22T11:13:10;99475.28;;;14.24;72.17
63819;BME280;49970;54.976;73.248;2023-06-22T11:15:36;99477.78;;;14.25;72.56
63819;BME280;49970;54.976;73.248;2023-06-22T11:18:03;99467.00;;;14.27;73.41
63819;BME280;49970;54.976;73.248;2023-06-22T11:20:51;99476.19;;;14.32;72.48
63819;BME280;49970;54.976;73.248;2023-06-22T11:24:24;99481.50;;;14.32;71.65
63819;BME280;49970;54.976;73.248;2023-06-22T11:27:19;99477.34;;;14.30;71.53
63819;BME280;49970;54.976;73.248;2023-06-22T11:30:51;99480.91;;;14.20;72.53
63819;BME280;49970;54.976;73.248;2023-06-22T11:33:17;99475.56;;;14.20;72.57
63819;BME280;49970;54.976;73.248;2023-06-22T11:39:33;99486.84;;;14.32;73.66
63819;BME280;49970;54.976;73.248;2023-06-22T11:41:59;99485.91;;;14.41;72.57
63819;BME280;49970;54.976;73.248;2023-06-22T11:44:25;99474.28;;;14.42;72.53
63819;BME280;49970;54.976;73.248;2023-06-22T11:46:52;99488.28;;;14.44;72.30
63819;BME280;49970;54.976;73.248;2023-06-22T11:49:19;99489.13;;;14.45;72.23
63819;BME280;49970;54.976;73.248;2023-06-22T11:51:45;99487.75;;;14.41;72.42
63819;BME280;49970;54.976;73.248;2023-06-22T11:54:12;99488.44;;;14.43;72.86
63819;BME280;49970;54.976;73.248;2023-06-22T11:56:38;99465.41;;;14.34;72.21
63819;BME280;49970;54.976;73.248;2023-06-22T11:59:04;99490.94;;;14.44;72.62
63819;BME280;49970;54.976;73.248;2023-06-22T12:01:50;99493.31;;;14.48;73.33
63819;BME280;49970;54.976;73.248;2023-06-22T12:04:37;99496.53;;;14.51;72.17
63819;BME280;49970;54.976;73.248;2023-06-22T12:07:38;99475.13;;;14.43;71.98
63819;BME280;49970;54.976;73.248;2023-06-22T12:11:10;99497.22;;;14.53;71.85
63819;BME280;49970;54.976;73.248;2023-06-22T12:13:36;99500.56;;;14.55;71.12
63819;BME280;49970;54.976;73.248;2023-06-22T12:16:03;99506.88;;;14.54;70.94
63819;BME280;49970;54.976;73.248;2023-06-22T12:18:38;99510.22;;;14.56;71.25
63819;BME280;49970;54.976;73.248;2023-06-22T12:21:04;99496.69;;;14.50;71.01
63819;BME280;49970;54.976;73.248;2023-06-22T12:23:30;99522.56;;;14.57;71.24
63819;BME280;49970;54.976;73.248;2023-06-22T12:25:56;99523.25;;;14.59;71.07
63819;BME280;49970;54.976;73.248;2023-06-22T12:28:22;99524.94;;;14.60;70.97
63819;BME280;49970;54.976;73.248;2023-06-22T12:30:49;99537.88;;;14.55;71.77
63819;BME280;49970;54.976;73.248;2023-06-22T12:33:35;99534.59;;;14.26;73.51
63819;BME280;49970;54.976;73.248;2023-06-22T12:37:51;99540.13;;;13.87;75.43
63819;BME280;49970;54.976;73.248;2023-06-22T12:41:37;99539.72;;;13.64;78.58
63819;BME280;49970;54.976;73.248;2023-06-22T12:44:04;99541.00;;;13.60;79.88
63819;BME280;49970;54.976;73.248;2023-06-22T12:46:30;99520.16;;;13.55;81.02
63819;BME280;49970;54.976;73.248;2023-06-22T12:49:06;99532.84;;;13.61;81.21
63819;BME280;49970;54.976;73.248;2023-06-22T12:51:39;99541.78;;;13.70;83.08
63819;BME280;49970;54.976;73.248;2023-06-22T12:54:26;99541.59;;;13.81;82.69
63819;BME280;49970;54.976;73.248;2023-06-22T12:58:42;99544.88;;;13.93;79.57
63819;BME280;49970;54.976;73.248;2023-06-22T13:06:23;99557.88;;;13.96;76.63
63819;BME280;49970;54.976;73.248;2023-06-22T13:09:36;99565.72;;;13.98;76.84
63819;BME280;49970;54.976;73.248;2023-06-22T13:12:02;99562.69;;;13.92;76.71
63819;BME280;49970;54.976;73.248;2023-06-22T13:14:29;99566.41;;;14.00;76.30
63819;BME280;49970;54.976;73.248;2023-06-22T13:16:56;99566.28;;;14.01;75.92
63819;BME280;49970;54.976;73.248;2023-06-22T13:19:22;99574.09;;;14.03;76.03
63819;BME280;49970;54.976;73.248;2023-06-22T13:21:48;99578.16;;;14.07;75.65
63819;BME280;49970;54.976;73.248;2023-06-22T13:24:14;99576.47;;;14.06;75.73
63819;BME280;49970;54.976;73.248;2023-06-22T13:26:42;99586.84;;;14.09;75.64
63819;BME280;49970;54.976;73.248;2023-06-22T13:29:08;99591.63;;;14.05;75.77
63819;BME280;49970;54.976;73.248;2023-06-22T13:31:34;99582.25;;;14.01;75.39
63819;BME280;49970;54.976;73.248;2023-06-22T13:34:00;99587.41;;;14.03;75.34
63819;BME280;49970;54.976;73.248;2023-06-22T13:36:27;99589.25;;;14.02;75.61
63819;BME280;49970;54.976;73.248;2023-06-22T13:38:56;99592.06;;;14.01;75.43
63819;BME280;49970;54.976;73.248;2023-06-22T13:41:22;99592.34;;;13.98;74.92
63819;BME280;49970;54.976;73.248;2023-06-22T13:43:48;99590.28;;;13.91;73.93
63819;BME280;49970;54.976;73.248;2023-06-22T13:46:15;99598.72;;;13.87;73.89
63819;BME280;49970;54.976;73.248;2023-06-22T13:48:41;99587.66;;;13.82;74.28
63819;BME280;49970;54.976;73.248;2023-06-22T13:51:07;99597.63;;;13.80;74.28
63819;BME280;49970;54.976;73.248;2023-06-22T13:53:33;99601.59;;;13.76;73.98
63819;BME280;49970;54.976;73.248;2023-06-22T13:56:00;99602.16;;;13.69;74.04
63819;BME280;49970;54.976;73.248;2023-06-22T13:58:27;99593.66;;;13.56;74.33